Time;durP1;ratioP1;P1;durP2;ratioP2;P2;SDS_P1;SDS_P2;PMS_P1;PMS_P2;Temp;Humidity;BMP_temperature;BMP_pressure;BME280_temperature;BME280_humidity;BME280_pressure;Samples;Min_cycle;Max_cycle;Signal;HPM_P1;HPM_P2
2022/07/08 00:00:09;;;;;;;4.17;1.37;;;23.20;48.20;;;;;;5127941;27;20932;-50
2022/07/08 00:02:51;;;;;;;2.20;1.20;;;23.20;48.30;;;;;;5105257;27;1228106;-48
2022/07/08 00:05:32;;;;;;;2.43;1.70;;;23.20;48.20;;;;;;5082200;28;20947;-50
2022/07/08 00:08:14;;;;;;;1.73;1.17;;;23.20;48.20;;;;;;5084252;27;20719;-48
2022/07/08 00:10:55;;;;;;;2.93;1.33;;;23.20;48.10;;;;;;5107593;27;20581;-47
2022/07/08 00:13:34;;;;;;;1.67;0.93;;;23.10;48.10;;;;;;5127935;27;20911;-48
2022/07/08 00:16:14;;;;;;;2.93;1.27;;;23.10;48.10;;;;;;5071647;28;20898;-46
2022/07/08 00:18:54;;;;;;;4.87;1.40;;;23.10;48.10;;;;;;5086855;27;20939;-49
2022/07/08 00:21:35;;;;;;;1.47;0.90;;;23.10;48.10;;;;;;5076036;27;20595;-46
2022/07/08 00:24:16;;;;;;;1.00;0.90;;;23.10;48.20;;;;;;5080055;28;21108;-48
2022/07/08 00:26:57;;;;;;;1.73;1.33;;;23.10;48.20;;;;;;5066893;27;20665;-48
2022/07/08 00:29:37;;;;;;;1.30;1.00;;;23.10;48.20;;;;;;5078213;28;20590;-67
2022/07/08 00:32:16;;;;;;;2.10;1.30;;;23.10;48.30;;;;;;5071779;28;20603;-48
2022/07/08 00:35:03;;;;;;;1.93;1.10;;;23.10;48.10;;;;;;5114599;27;20521;-48
2022/07/08 00:37:44;;;;;;;4.00;1.20;;;23.10;48.10;;;;;;5076562;27;20606;-50
2022/07/08 00:40:24;;;;;;;1.60;1.10;;;23.10;48.30;;;;;;5113573;27;20869;-47
2022/07/08 00:43:03;;;;;;;1.90;1.70;;;23.10;48.30;;;;;;5033616;27;20612;-48
2022/07/08 00:45:43;;;;;;;2.80;1.37;;;23.10;48.20;;;;;;5078995;28;20546;-47
2022/07/08 00:48:23;;;;;;;1.17;0.87;;;23.10;48.30;;;;;;5079033;28;21055;-48
2022/07/08 00:51:06;;;;;;;2.13;1.20;;;23.10;48.30;;;;;;5069265;28;20589;-47
2022/07/08 00:53:51;;;;;;;3.57;1.37;;;23.10;48.20;;;;;;5080271;28;20527;-47
2022/07/08 00:56:31;;;;;;;1.90;1.07;;;23.10;48.20;;;;;;5052885;28;20607;-48
2022/07/08 00:59:13;;;;;;;1.60;1.47;;;23.10;48.20;;;;;;5087412;28;20572;-49
2022/07/08 01:01:54;;;;;;;2.00;1.37;;;23.10;48.30;;;;;;5100371;27;20544;-47
2022/07/08 01:04:35;;;;;;;2.33;1.27;;;23.10;48.30;;;;;;5129876;27;20526;-49
2022/07/08 01:07:16;;;;;;;2.23;1.00;;;23.10;48.30;;;;;;5106237;27;20540;-48
2022/07/08 01:09:56;;;;;;;2.00;1.33;;;23.10;48.30;;;;;;5067876;27;21118;-47
2022/07/08 01:12:36;;;;;;;1.87;1.23;;;23.10;48.30;;;;;;5080354;27;20586;-47
2022/07/08 01:15:16;;;;;;;1.30;1.20;;;23.10;48.20;;;;;;5129711;27;20602;-48
2022/07/08 01:17:56;;;;;;;2.03;1.20;;;23.00;48.20;;;;;;5050659;27;20605;-49
2022/07/08 01:20:40;;;;;;;2.20;1.03;;;23.10;48.20;;;;;;5087336;28;20939;-48
2022/07/08 01:23:20;;;;;;;3.83;1.60;;;23.00;48.30;;;;;;5062639;27;21078;-48
2022/07/08 01:26:00;;;;;;;2.40;1.13;;;23.00;48.10;;;;;;5129463;27;1281031;-49
2022/07/08 01:28:46;;;;;;;3.00;1.70;;;23.00;48.30;;;;;;5107279;27;20896;-47
2022/07/08 01:31:26;;;;;;;2.90;1.30;;;23.00;48.30;;;;;;5073447;27;20949;-49
2022/07/08 01:34:07;;;;;;;2.60;1.57;;;23.00;48.10;;;;;;5086908;28;20529;-49
2022/07/08 01:36:47;;;;;;;1.63;1.00;;;23.00;48.30;;;;;;5105800;27;20619;-50
2022/07/08 01:39:27;;;;;;;2.80;1.20;;;23.00;48.20;;;;;;5123766;27;20605;-48
2022/07/08 01:42:07;;;;;;;1.30;1.20;;;23.00;48.30;;;;;;5082463;27;21044;-48
2022/07/08 01:44:48;;;;;;;1.47;1.20;;;23.00;48.30;;;;;;5087240;28;20587;-47
2022/07/08 01:47:28;;;;;;;2.57;1.20;;;23.00;48.10;;;;;;5042031;28;20624;-49
2022/07/08 01:50:08;;;;;;;2.30;1.30;;;23.00;48.20;;;;;;5121886;27;20581;-47
2022/07/08 01:52:49;;;;;;;1.50;1.23;;;23.00;48.30;;;;;;5080254;27;20664;-49
2022/07/08 01:55:29;;;;;;;2.13;1.93;;;22.90;48.10;;;;;;5086173;28;20953;-48
2022/07/08 01:58:09;;;;;;;2.00;1.20;;;23.00;48.30;;;;;;5068142;27;20546;-47
2022/07/08 02:00:48;;;;;;;2.00;1.23;;;23.00;48.30;;;;;;5084040;28;20635;-48
2022/07/08 02:03:27;;;;;;;2.92;1.25;;;23.00;48.30;;;;;;5135141;27;1223867;-47
2022/07/08 02:06:08;;;;;;;1.70;0.80;;;22.90;48.20;;;;;;5073397;28;20533;-46
2022/07/08 02:08:50;;;;;;;3.03;1.30;;;22.90;48.30;;;;;;5120668;27;20593;-50
2022/07/08 02:14:28;;;;;;;1.60;1.10;;;22.90;48.20;;;;;;5170288;27;20518;-48
2022/07/08 02:17:09;;;;;;;2.10;1.20;;;22.90;48.20;;;;;;5054741;28;21099;-48
2022/07/08 02:19:50;;;;;;;1.73;0.90;;;22.90;48.20;;;;;;5136218;27;21081;-48
2022/07/08 02:22:31;;;;;;;1.77;1.00;;;22.90;48.30;;;;;;5069778;27;20593;-66
2022/07/08 02:25:11;;;;;;;2.10;1.17;;;22.90;48.20;;;;;;5065408;28;20518;-48
2022/07/08 02:27:52;;;;;;;1.73;1.17;;;22.90;48.20;;;;;;5038117;28;21129;-48
2022/07/08 02:30:32;;;;;;;2.13;1.40;;;22.90;48.20;;;;;;5128588;27;20533;-50
2022/07/08 02:33:12;;;;;;;1.10;1.00;;;22.90;48.30;;;;;;5064467;27;20953;-50
2022/07/08 02:35:53;;;;;;;2.33;1.20;;;22.90;48.30;;;;;;5077433;27;20599;-47
2022/07/08 02:38:33;;;;;;;2.47;1.20;;;22.90;48.40;;;;;;5080091;28;20587;-49
2022/07/08 02:41:12;;;;;;;1.80;1.60;;;22.90;48.40;;;;;;5084331;27;20577;-46
2022/07/08 02:43:52;;;;;;;3.30;1.50;;;22.90;48.30;;;;;;5087201;28;20923;-49
2022/07/08 02:46:32;;;;;;;2.90;1.30;;;22.90;48.30;;;;;;5056988;27;20554;-49
2022/07/08 02:49:12;;;;;;;2.50;1.20;;;22.80;48.20;;;;;;5136913;27;20939;-49
2022/07/08 02:51:53;;;;;;;3.30;1.00;;;22.90;48.30;;;;;;5064285;27;20603;-48
2022/07/08 02:54:33;;;;;;;1.90;1.40;;;22.90;48.30;;;;;;5124799;22;20563;-71
2022/07/08 02:57:13;;;;;;;1.70;1.23;;;22.90;48.30;;;;;;5066464;28;20591;-48
2022/07/08 02:59:53;;;;;;;1.77;0.90;;;22.90;48.40;;;;;;5128041;27;20936;-48
2022/07/08 03:02:33;;;;;;;1.93;1.20;;;22.90;48.30;;;;;;5070936;27;20546;-48
2022/07/08 03:05:12;;;;;;;2.47;1.40;;;22.80;48.30;;;;;;5092645;27;20532;-48
2022/07/08 03:07:52;;;;;;;1.50;1.00;;;22.80;48.10;;;;;;5100702;27;20539;-48
2022/07/08 03:10:32;;;;;;;2.53;1.00;;;22.80;48.20;;;;;;5115571;27;20529;-49
2022/07/08 03:13:13;;;;;;;3.57;1.40;;;22.80;48.20;;;;;;5068768;27;20603;-49
2022/07/08 03:15:53;;;;;;;1.33;1.23;;;22.80;48.20;;;;;;5078509;27;20949;-48
2022/07/08 03:18:36;;;;;;;1.17;0.93;;;22.80;48.10;;;;;;5080554;28;20542;-48
2022/07/08 03:21:16;;;;;;;2.20;1.60;;;22.80;48.20;;;;;;5105460;27;20556;-47
2022/07/08 03:23:56;;;;;;;3.63;1.13;;;22.80;48.30;;;;;;5083375;28;20529;-49
2022/07/08 03:26:36;;;;;;;4.23;1.37;;;22.80;48.30;;;;;;5071953;28;21061;-48
2022/07/08 03:29:15;;;;;;;1.83;1.10;;;22.80;48.30;;;;;;5087606;27;20532;-49
2022/07/08 03:31:56;;;;;;;1.47;0.90;;;22.80;48.30;;;;;;5063196;28;20543;-50
2022/07/08 03:34:37;;;;;;;2.80;1.47;;;22.80;48.30;;;;;;5071898;27;21105;-49
2022/07/08 03:37:17;;;;;;;1.60;1.50;;;22.80;48.30;;;;;;4981789;28;20557;-49
2022/07/08 03:41:19;;;;;;;1.47;1.10;;;22.80;48.30;;;;;;5086115;28;20593;-49
2022/07/08 03:42:57;;;;;;;1.50;1.00;;;22.70;48.30;;;;;;5081128;27;20539;-49
2022/07/08 03:45:37;;;;;;;2.70;1.87;;;22.70;48.30;;;;;;5113977;27;20599;-49
2022/07/08 03:48:17;;;;;;;1.30;1.20;;;22.70;48.30;;;;;;5062448;27;20955;-48
2022/07/08 03:50:57;;;;;;;2.57;1.10;;;22.70;48.30;;;;;;5087571;28;20519;-48
2022/07/08 03:53:38;;;;;;;2.60;1.13;;;22.70;48.30;;;;;;5081263;28;20591;-48
2022/07/08 03:56:19;;;;;;;1.50;1.20;;;22.70;48.30;;;;;;5062638;27;20982;-49
2022/07/08 03:58:59;;;;;;;1.43;1.07;;;22.70;48.30;;;;;;5128274;27;20521;-49
2022/07/08 04:01:39;;;;;;;3.47;1.37;;;22.70;48.40;;;;;;5070796;28;20547;-48
2022/07/08 04:04:19;;;;;;;2.50;1.13;;;22.70;48.30;;;;;;5132473;27;20598;-49
2022/07/08 04:07:00;;;;;;;1.50;0.70;;;22.70;48.40;;;;;;5046812;27;21088;-49
2022/07/08 04:09:40;;;;;;;2.83;1.30;;;22.70;48.40;;;;;;5064125;28;20591;-50
2022/07/08 04:12:20;;;;;;;3.17;1.40;;;22.70;48.40;;;;;;5094286;27;20974;-48
2022/07/08 04:14:59;;;;;;;2.20;1.00;;;22.70;49.60;;;;;;5087196;27;20527;-49
2022/07/08 04:17:39;;;;;;;1.90;1.07;;;22.70;48.30;;;;;;5084953;27;20586;-48
2022/07/08 04:20:21;;;;;;;1.47;1.17;;;22.70;48.40;;;;;;5088193;27;20577;-49
2022/07/08 04:23:00;;;;;;;2.50;0.97;;;22.70;48.30;;;;;;5136743;27;20534;-49
2022/07/08 04:25:40;;;;;;;1.60;1.20;;;22.70;48.30;;;;;;5088244;28;20577;-49
2022/07/08 04:28:20;;;;;;;2.07;1.20;;;22.70;48.30;;;;;;5067218;27;20606;-49
2022/07/08 04:31:00;;;;;;;1.47;1.10;;;22.70;48.30;;;;;;5086967;28;20528;-48
2022/07/08 04:33:41;;;;;;;1.87;1.00;;;22.70;48.40;;;;;;5127810;27;20598;-48
2022/07/08 04:36:21;;;;;;;2.50;1.13;;;22.60;48.20;;;;;;5080856;28;20585;-48
2022/07/08 04:39:01;;;;;;;1.57;1.00;;;22.70;48.50;;;;;;5126984;27;20927;-48
2022/07/08 04:41:41;;;;;;;1.23;0.90;;;22.60;48.40;;;;;;5070384;28;20539;-48
2022/07/08 04:44:22;;;;;;;1.93;1.10;;;22.60;48.40;;;;;;5087608;28;20577;-48
2022/07/08 04:47:02;;;;;;;2.93;1.17;;;22.60;48.40;;;;;;5024663;28;20558;-49
2022/07/08 04:49:44;;;;;;;2.70;1.30;;;22.60;48.40;;;;;;5094057;27;20589;-48
2022/07/08 04:52:25;;;;;;;1.50;1.00;;;22.60;48.40;;;;;;5070039;27;21057;-48
2022/07/08 04:55:27;;;;;;;1.70;0.70;;;22.60;48.40;;;;;;5125416;27;20548;-49
2022/07/08 04:58:09;;;;;;;2.00;1.10;;;22.60;48.50;;;;;;5070296;27;20972;-48
2022/07/08 05:00:50;;;;;;;1.70;1.00;;;22.60;48.50;;;;;;5107918;27;20572;-47
2022/07/08 05:03:33;;;;;;;5.43;1.43;;;22.60;48.30;;;;;;5083758;27;20536;-49
2022/07/08 05:06:16;;;;;;;2.10;1.43;;;22.60;48.40;;;;;;5100461;27;20542;-49
2022/07/08 05:08:55;;;;;;;3.60;1.37;;;22.60;48.50;;;;;;5128134;27;20591;-48
2022/07/08 05:11:35;;;;;;;1.47;1.27;;;22.60;48.30;;;;;;5107193;27;20540;-48
2022/07/08 05:14:15;;;;;;;2.33;1.40;;;22.60;48.40;;;;;;5161930;27;20580;-49
2022/07/08 05:16:55;;;;;;;3.30;1.50;;;22.60;48.30;;;;;;5065281;27;21089;-49
2022/07/08 05:19:37;;;;;;;1.77;0.90;;;22.60;48.40;;;;;;5071878;27;20587;-49
2022/07/08 05:22:19;;;;;;;1.57;1.10;;;22.60;48.30;;;;;;5116245;27;20582;-50
2022/07/08 05:25:01;;;;;;;2.30;1.20;;;22.50;48.30;;;;;;5079996;28;21128;-48
2022/07/08 05:27:41;;;;;;;1.43;1.30;;;22.50;48.30;;;;;;5045367;27;20614;-49
2022/07/08 05:30:23;;;;;;;2.17;1.47;;;22.50;48.30;;;;;;5096375;27;20582;-49
2022/07/08 05:33:03;;;;;;;2.80;1.33;;;22.50;49.50;;;;;;5050445;27;20551;-49
2022/07/08 05:35:45;;;;;;;2.87;1.17;;;22.50;48.30;;;;;;5076695;28;20542;-49
2022/07/08 05:38:27;;;;;;;2.27;1.27;;;22.50;48.30;;;;;;5129708;27;20595;-49
2022/07/08 05:41:08;;;;;;;2.73;1.33;;;22.50;48.30;;;;;;5084561;27;20528;-48
2022/07/08 05:43:50;;;;;;;1.47;1.20;;;22.50;48.30;;;;;;5113925;27;20568;-48
2022/07/08 05:46:31;;;;;;;2.80;1.43;;;22.50;48.20;;;;;;5097081;27;20570;-48
2022/07/08 05:49:12;;;;;;;1.83;1.00;;;22.50;48.10;;;;;;5087154;27;20581;-49
2022/07/08 05:51:53;;;;;;;3.55;1.02;;;22.50;48.10;;;;;;5112097;27;1234624;-47
2022/07/08 05:54:33;;;;;;;2.13;1.47;;;22.40;48.00;;;;;;5080592;28;20532;-49
2022/07/08 05:57:15;;;;;;;2.00;1.37;;;22.50;48.10;;;;;;5117683;27;20538;-48
2022/07/08 05:59:56;;;;;;;1.47;1.03;;;22.50;48.20;;;;;;5107363;27;21110;-49
2022/07/08 06:02:37;;;;;;;4.23;1.20;;;22.50;48.20;;;;;;5042067;28;20624;-49
2022/07/08 06:05:17;;;;;;;1.47;1.10;;;22.50;48.10;;;;;;5084059;28;20533;-49
2022/07/08 06:07:57;;;;;;;2.30;1.33;;;22.50;48.10;;;;;;5061746;27;20606;-49
2022/07/08 06:10:37;;;;;;;2.87;1.20;;;22.50;48.20;;;;;;5128516;27;20594;-49
2022/07/08 06:13:16;;;;;;;1.20;1.03;;;22.50;48.10;;;;;;5067642;27;20603;-49
2022/07/08 06:15:56;;;;;;;2.20;1.20;;;22.50;48.20;;;;;;5125832;27;20944;-48
2022/07/08 06:18:38;;;;;;;1.73;1.33;;;22.50;48.20;;;;;;5080590;28;20513;-49
2022/07/08 06:21:19;;;;;;;1.50;1.37;;;22.50;48.20;;;;;;5122581;27;20517;-49
2022/07/08 06:24:00;;;;;;;2.00;1.13;;;22.50;48.70;;;;;;5105408;27;21138;-49
2022/07/08 06:26:43;;;;;;;1.83;1.10;;;22.40;48.20;;;;;;5052059;27;20571;-48
2022/07/08 06:29:23;;;;;;;1.43;0.80;;;22.50;48.20;;;;;;5087472;28;21119;-48
2022/07/08 06:32:04;;;;;;;1.77;1.20;;;22.50;48.20;;;;;;5094980;27;20591;-49
2022/07/08 06:34:46;;;;;;;2.67;1.10;;;22.50;48.30;;;;;;5084961;28;20527;-48
2022/07/08 06:37:28;;;;;;;1.00;0.90;;;22.50;48.30;;;;;;5062570;27;20593;-48
2022/07/08 06:40:10;;;;;;;1.30;1.10;;;22.50;48.30;;;;;;5083712;27;20586;-47
2022/07/08 06:42:50;;;;;;;1.47;0.90;;;22.40;48.20;;;;;;5063373;28;20546;-48
2022/07/08 06:45:32;;;;;;;2.23;1.20;;;22.50;48.10;;;;;;5087594;28;20545;-48
2022/07/08 06:48:13;;;;;;;2.97;1.20;;;22.50;48.10;;;;;;5103054;27;20545;-49
2022/07/08 06:50:56;;;;;;;2.13;1.30;;;22.50;48.10;;;;;;5109154;27;20543;-49
2022/07/08 06:56:35;;;;;;;4.83;1.37;;;22.40;47.90;;;;;;5061193;28;20602;-49
2022/07/08 06:59:15;;;;;;;1.90;1.00;;;22.50;48.00;;;;;;5093987;27;20531;-48
2022/07/08 07:01:56;;;;;;;2.67;1.70;;;22.40;49.10;;;;;;5064421;27;20614;-48
2022/07/08 07:04:38;;;;;;;3.57;1.50;;;22.40;47.80;;;;;;5125685;27;20591;-49
2022/07/08 07:07:19;;;;;;;1.63;1.23;;;22.40;47.70;;;;;;5069981;27;20953;-49
2022/07/08 07:10:00;;;;;;;3.30;1.20;;;22.40;47.90;;;;;;5102558;27;20597;-49
2022/07/08 07:12:41;;;;;;;2.57;1.40;;;22.40;47.80;;;;;;5096850;27;20597;-49
2022/07/08 07:15:21;;;;;;;3.50;1.23;;;22.40;47.80;;;;;;5131345;27;20546;-49
2022/07/08 07:18:02;;;;;;;3.20;1.60;;;22.40;47.80;;;;;;5053573;28;20601;-48
2022/07/08 07:20:43;;;;;;;2.60;1.07;;;22.40;47.70;;;;;;5086733;28;20585;-48
2022/07/08 07:23:22;;;;;;;2.67;1.17;;;22.40;47.80;;;;;;5062409;27;20555;-48
2022/07/08 07:26:03;;;;;;;1.43;1.23;;;22.50;47.90;;;;;;5100859;27;21054;-48
2022/07/08 07:28:44;;;;;;;4.10;1.40;;;22.40;47.90;;;;;;5128257;27;21015;-48
2022/07/08 07:31:23;;;;;;;1.80;1.20;;;22.40;47.90;;;;;;5074856;28;20642;-48
2022/07/08 07:34:04;;;;;;;3.20;1.43;;;22.40;47.90;;;;;;5086254;28;20524;-49
2022/07/08 07:36:45;;;;;;;2.00;1.13;;;22.40;47.90;;;;;;5108305;27;20591;-49
2022/07/08 07:39:26;;;;;;;1.87;1.10;;;22.40;48.00;;;;;;5084594;28;21124;-50
2022/07/08 07:42:08;;;;;;;3.92;1.45;;;22.50;48.20;;;;;;5058230;27;20516;-48
2022/07/08 07:44:49;;;;;;;1.87;1.40;;;22.40;47.20;;;;;;5086572;28;21112;-49
2022/07/08 07:47:29;;;;;;;2.47;1.30;;;22.40;47.20;;;;;;5066338;27;20606;-48
2022/07/08 07:50:12;;;;;;;2.77;1.00;;;22.30;47.20;;;;;;5108017;27;20577;-49
2022/07/08 07:52:52;;;;;;;1.50;1.10;;;22.30;47.40;;;;;;5041239;27;20551;-49
2022/07/08 07:55:32;;;;;;;2.80;1.50;;;22.30;47.30;;;;;;5081766;27;20595;-49
2022/07/08 07:58:13;;;;;;;1.83;1.17;;;22.40;47.50;;;;;;5076884;27;20611;-49
2022/07/08 08:00:53;;;;;;;1.50;0.87;;;22.40;47.50;;;;;;5086443;28;20577;-49
2022/07/08 08:03:34;;;;;;;1.90;1.20;;;22.40;47.60;;;;;;5084020;27;20586;-47
2022/07/08 08:06:16;;;;;;;3.20;1.57;;;22.40;47.60;;;;;;5069402;28;20599;-48
2022/07/08 08:08:56;;;;;;;3.00;1.80;;;22.30;46.20;;;;;;5084909;28;20548;-48
2022/07/08 08:11:37;;;;;;;2.13;1.10;;;22.20;45.80;;;;;;5078392;27;20535;-49
2022/07/08 08:14:18;;;;;;;4.07;1.77;;;22.20;46.20;;;;;;5085825;28;20574;-48
2022/07/08 08:16:58;;;;;;;5.37;2.03;;;22.20;46.60;;;;;;5051822;27;20613;-49
2022/07/08 08:19:39;;;;;;;2.43;1.20;;;22.20;46.60;;;;;;5086700;28;20520;-49
2022/07/08 08:22:19;;;;;;;3.57;1.20;;;22.20;47.30;;;;;;5066447;28;20961;-48
2022/07/08 08:25:00;;;;;;;1.93;1.30;;;22.20;46.70;;;;;;5103158;27;20607;-48
2022/07/08 08:27:41;;;;;;;1.80;1.10;;;22.20;46.80;;;;;;5085269;27;20953;-48
2022/07/08 08:30:22;;;;;;;2.87;1.43;;;22.30;46.90;;;;;;5072976;27;20928;-47
2022/07/08 08:33:03;;;;;;;3.23;1.50;;;22.30;47.00;;;;;;5049429;27;20592;-49
2022/07/08 08:35:43;;;;;;;2.20;1.10;;;22.30;47.00;;;;;;5113812;27;20580;-47
2022/07/08 08:38:23;;;;;;;1.57;1.20;;;22.30;47.00;;;;;;5064703;27;20608;-49
2022/07/08 08:41:03;;;;;;;2.17;1.37;;;22.30;47.00;;;;;;5088309;27;20581;-48
2022/07/08 08:43:44;;;;;;;2.33;1.00;;;22.30;47.00;;;;;;5082754;27;20575;-49
2022/07/08 08:46:25;;;;;;;1.67;1.03;;;22.30;47.00;;;;;;5119006;27;20613;-49
2022/07/08 08:49:05;;;;;;;2.47;1.07;;;22.30;47.10;;;;;;5087592;27;20562;-50
2022/07/08 08:51:49;;;;;;;2.60;1.23;;;22.30;47.10;;;;;;5069109;27;21116;-49
2022/07/08 08:54:34;;;;;;;3.80;1.50;;;22.30;47.00;;;;;;5078565;28;20589;-49
2022/07/08 08:57:14;;;;;;;1.47;1.10;;;22.30;47.10;;;;;;5085153;27;20597;-48
2022/07/08 08:59:56;;;;;;;2.07;1.33;;;22.30;47.10;;;;;;5087179;28;20648;-50
2022/07/08 09:02:39;;;;;;;1.97;1.20;;;22.30;47.00;;;;;;5044694;28;20565;-49
2022/07/08 09:05:21;;;;;;;1.53;1.03;;;22.30;47.10;;;;;;5080517;27;20579;-49
2022/07/08 09:08:01;;;;;;;1.93;1.37;;;22.30;47.10;;;;;;5069390;27;20591;-48
2022/07/08 09:10:43;;;;;;;2.03;1.30;;;22.30;47.10;;;;;;5087797;28;20573;-49
2022/07/08 09:13:25;;;;;;;1.80;1.17;;;22.30;47.20;;;;;;5068128;27;20583;-49
2022/07/08 09:16:06;;;;;;;3.07;1.23;;;22.30;47.20;;;;;;5069288;28;20571;-48
2022/07/08 09:18:49;;;;;;;1.73;1.00;;;22.30;47.20;;;;;;5126786;27;20535;-48
2022/07/08 09:21:29;;;;;;;2.10;1.07;;;22.30;47.10;;;;;;5077242;28;20531;-49
2022/07/08 09:24:20;;;;;;;1.03;0.93;;;22.30;47.10;;;;;;5080572;28;21101;-47
2022/07/08 09:27:05;;;;;;;1.90;1.10;;;22.30;47.20;;;;;;5041001;28;20603;-49
2022/07/08 09:29:58;;;;;;;1.43;0.90;;;22.30;47.20;;;;;;5129352;27;20517;-49
2022/07/08 09:32:38;;;;;;;1.33;1.07;;;22.30;47.10;;;;;;5109580;27;20934;-49
2022/07/08 09:35:18;;;;;;;1.10;0.97;;;22.30;47.10;;;;;;5129077;27;20614;-49
2022/07/08 09:38:01;;;;;;;3.10;0.90;;;22.30;47.20;;;;;;5060348;27;21069;-48
2022/07/08 09:40:54;;;;;;;1.10;1.00;;;22.30;47.20;;;;;;5069993;28;20584;-48
2022/07/08 09:43:44;;;;;;;2.00;0.87;;;22.30;47.20;;;;;;5107995;27;20932;-50
2022/07/08 09:46:36;;;;;;;2.60;1.20;;;22.30;47.20;;;;;;5069014;28;20600;-48
2022/07/08 09:49:30;;;;;;;1.70;0.90;;;22.30;47.20;;;;;;5087910;28;20934;-48
2022/07/08 09:52:12;;;;;;;1.83;1.30;;;22.30;47.20;;;;;;5069819;28;20672;-48
2022/07/08 09:55:10;;;;;;;2.10;1.00;;;22.30;47.10;;;;;;5080385;28;20594;-49
2022/07/08 09:57:52;;;;;;;1.70;1.37;;;22.30;47.10;;;;;;5062485;28;20608;-49
2022/07/08 10:00:34;;;;;;;1.77;1.13;;;22.30;47.20;;;;;;5087936;28;20864;-49
2022/07/08 10:03:14;;;;;;;1.30;1.20;;;22.30;47.20;;;;;;5075246;27;20601;-48
2022/07/08 10:05:56;;;;;;;2.20;1.30;;;22.30;47.20;;;;;;5086170;28;20528;-49
2022/07/08 10:08:37;;;;;;;1.10;1.00;;;22.30;47.20;;;;;;5085454;27;21042;-48
2022/07/08 10:11:19;;;;;;;1.83;1.20;;;22.30;48.40;;;;;;5106027;27;20576;-49
2022/07/08 10:14:01;;;;;;;1.73;1.30;;;22.30;47.30;;;;;;5086262;28;20589;-49
2022/07/08 10:16:42;;;;;;;1.50;1.40;;;22.30;47.20;;;;;;5059119;28;20557;-48
2022/07/08 10:19:28;;;;;;;2.73;1.50;;;22.30;47.10;;;;;;5087636;27;21133;-48
2022/07/08 10:22:16;;;;;;;1.30;1.20;;;22.30;47.10;;;;;;5067010;27;20542;-49
2022/07/08 10:24:57;;;;;;;6.07;1.73;;;22.30;47.10;;;;;;5062078;27;21107;-48
2022/07/08 10:27:37;;;;;;;3.33;1.30;;;22.30;47.00;;;;;;5093534;27;20543;-48
2022/07/08 10:30:20;;;;;;;1.50;1.33;;;22.40;47.20;;;;;;5088236;27;20570;-47
2022/07/08 10:33:06;;;;;;;2.30;1.73;;;22.40;47.40;;;;;;5052981;27;20602;-49
2022/07/08 10:36:02;;;;;;;1.57;1.20;;;22.40;47.30;;;;;;5126404;27;20529;-49
2022/07/08 10:38:43;;;;;;;1.90;1.10;;;22.40;47.30;;;;;;5081049;27;20579;-48
2022/07/08 10:41:27;;;;;;;3.17;1.50;;;22.40;47.30;;;;;;5105149;27;20887;-48
2022/07/08 10:44:08;;;;;;;1.17;1.07;;;22.30;48.40;;;;;;5116854;27;20518;-48
2022/07/08 10:46:53;;;;;;;1.10;0.90;;;22.40;47.30;;;;;;5083535;27;20587;-48
2022/07/08 10:49:42;;;;;;;2.87;1.23;;;22.40;47.30;;;;;;5088101;27;20524;-49
2022/07/08 10:52:32;;;;;;;1.30;1.07;;;22.40;47.30;;;;;;5092241;22;20617;-66
2022/07/08 10:55:14;;;;;;;1.97;0.90;;;22.40;47.30;;;;;;5107531;27;20588;-45
2022/07/08 10:57:56;;;;;;;2.53;1.58;;;22.40;47.40;;;;;;5113931;27;1202553;-47
2022/07/08 11:00:39;;;;;;;2.78;1.20;;;22.40;47.50;;;;;;5143963;27;1205229;-48
2022/07/08 11:03:40;;;;;;;3.00;1.10;;;22.40;47.50;;;;;;5066481;27;20548;-47
2022/07/08 11:06:38;;;;;;;1.47;0.90;;;22.40;47.50;;;;;;5081879;28;20930;-46
2022/07/08 11:09:22;;;;;;;4.23;1.33;;;22.40;47.60;;;;;;5081080;28;20872;-47
2022/07/08 11:12:02;;;;;;;1.63;1.40;;;22.40;47.60;;;;;;5072933;28;21419;-47
2022/07/08 11:14:44;;;;;;;1.60;1.13;;;22.40;47.60;;;;;;5128950;27;20575;-47
2022/07/08 11:17:26;;;;;;;3.63;1.20;;;22.40;47.60;;;;;;5094525;27;20596;-47
2022/07/08 11:20:09;;;;;;;3.17;1.20;;;22.50;47.70;;;;;;5076058;27;20610;-47
2022/07/08 11:22:49;;;;;;;1.73;1.00;;;22.50;47.70;;;;;;5043514;27;20595;-48
2022/07/08 11:25:31;;;;;;;1.70;1.13;;;22.50;47.70;;;;;;5088258;28;20589;-46
2022/07/08 11:28:21;;;;;;;2.40;1.50;;;22.50;47.80;;;;;;5056191;28;20600;-46
2022/07/08 11:31:02;;;;;;;4.53;1.20;;;22.50;47.80;;;;;;5127320;27;20936;-47
2022/07/08 11:33:42;;;;;;;2.90;0.90;;;22.50;47.70;;;;;;5108162;27;20588;-50
2022/07/08 11:36:23;;;;;;;2.83;1.17;;;22.50;47.80;;;;;;5106523;27;20569;-47
2022/07/08 11:39:05;;;;;;;1.13;1.03;;;22.50;47.80;;;;;;5142393;27;20539;-47
2022/07/08 11:41:46;;;;;;;3.10;1.70;;;22.50;47.80;;;;;;5081238;28;20537;-47
2022/07/08 11:44:28;;;;;;;2.70;1.37;;;22.50;47.80;;;;;;5108121;27;20572;-47
2022/07/08 11:47:10;;;;;;;2.10;1.20;;;22.50;47.90;;;;;;5111438;27;20592;-47
2022/07/08 11:49:51;;;;;;;1.93;0.70;;;22.50;47.80;;;;;;5114494;27;20566;-47
2022/07/08 11:52:31;;;;;;;3.40;1.42;;;22.50;47.90;;;;;;5111534;27;1198877;-47
2022/07/08 11:55:11;;;;;;;4.03;1.30;;;22.50;47.80;;;;;;5097983;27;20584;-46
2022/07/08 11:57:51;;;;;;;1.93;1.20;;;22.50;47.80;;;;;;5077582;27;20611;-47
2022/07/08 12:00:31;;;;;;;1.33;1.23;;;22.60;47.90;;;;;;5086376;28;20586;-48
2022/07/08 12:03:10;;;;;;;2.00;1.17;;;22.60;48.00;;;;;;5057487;28;20560;-47
2022/07/08 12:05:50;;;;;;;2.60;1.20;;;22.60;48.00;;;;;;5079911;28;21109;-47
2022/07/08 12:08:33;;;;;;;2.00;1.40;;;22.60;47.90;;;;;;5080776;27;20538;-47
2022/07/08 12:11:15;;;;;;;2.10;1.00;;;22.60;47.50;;;;;;5105680;27;20514;-47
2022/07/08 12:13:56;;;;;;;1.57;1.17;;;22.60;47.70;;;;;;5128229;27;20525;-47
2022/07/08 12:16:43;;;;;;;2.67;1.33;;;22.70;47.80;;;;;;5063550;27;20602;-47
2022/07/08 12:19:29;;;;;;;1.73;1.30;;;22.70;47.80;;;;;;5119123;27;20533;-47
2022/07/08 12:22:14;;;;;;;1.83;1.50;;;22.60;47.90;;;;;;5110503;27;20561;-46
2022/07/08 12:25:02;;;;;;;2.17;1.27;;;22.60;47.90;;;;;;5123191;27;21039;-46
2022/07/08 12:27:43;;;;;;;2.07;1.40;;;22.70;47.90;;;;;;5048955;27;20552;-47
2022/07/08 12:30:28;;;;;;;4.43;1.60;;;22.70;48.00;;;;;;5128368;27;20567;-47
2022/07/08 12:33:09;;;;;;;2.07;1.00;;;22.70;48.10;;;;;;5106437;27;20651;-47
2022/07/08 12:36:02;;;;;;;2.40;1.40;;;22.70;48.10;;;;;;5108129;27;21054;-47
2022/07/08 12:38:43;;;;;;;1.60;1.33;;;22.70;48.10;;;;;;5080922;28;20942;-48
2022/07/08 12:41:24;;;;;;;1.47;1.30;;;22.70;48.10;;;;;;5065941;27;20525;-47
2022/07/08 12:44:30;;;;;;;2.03;1.13;;;22.70;48.20;;;;;;5087631;28;20578;-47
2022/07/08 12:47:12;;;;;;;1.97;1.20;;;22.70;48.30;;;;;;5058916;28;20968;-47
2022/07/08 12:49:56;;;;;;;1.60;1.10;;;22.70;48.20;;;;;;5072102;27;20545;-47
2022/07/08 12:52:37;;;;;;;1.77;1.30;;;22.80;48.30;;;;;;5066046;28;20535;-47
2022/07/08 12:55:17;;;;;;;1.33;1.23;;;22.80;48.30;;;;;;5129287;27;20529;-48
2022/07/08 12:57:58;;;;;;;1.40;1.17;;;22.70;48.20;;;;;;5022302;28;20603;-47
2022/07/08 13:00:37;;;;;;;2.90;1.33;;;22.80;48.30;;;;;;5087871;28;20955;-46
2022/07/08 13:03:17;;;;;;;1.43;1.10;;;22.80;48.40;;;;;;5063536;27;20593;-47
2022/07/08 13:05:59;;;;;;;1.20;1.10;;;22.80;48.10;;;;;;5083659;28;21060;-46
2022/07/08 13:08:41;;;;;;;1.23;1.13;;;22.80;48.10;;;;;;5183654;27;21153;-47
2022/07/08 13:11:22;;;;;;;1.00;0.90;;;22.80;48.20;;;;;;5073580;27;20517;-47
2022/07/08 13:14:03;;;;;;;1.17;1.00;;;22.80;48.20;;;;;;5118131;27;20531;-47
2022/07/08 13:16:45;;;;;;;2.97;1.20;;;22.80;48.40;;;;;;5100563;27;20585;-48
2022/07/08 13:19:26;;;;;;;2.13;1.20;;;22.90;48.40;;;;;;5086886;28;20529;-46
2022/07/08 13:22:07;;;;;;;1.47;1.30;;;22.90;48.30;;;;;;5079090;28;20593;-47
2022/07/08 13:24:49;;;;;;;2.40;1.27;;;22.90;48.20;;;;;;5062905;28;20643;-47
2022/07/08 13:27:30;;;;;;;1.47;1.37;;;22.90;48.10;;;;;;5071019;27;20557;-47
2022/07/08 13:30:12;;;;;;;2.03;1.20;;;22.90;48.30;;;;;;5115874;27;20943;-48
2022/07/08 13:32:53;;;;;;;1.83;1.20;;;22.90;48.40;;;;;;5072988;27;20684;-47
2022/07/08 13:35:34;;;;;;;1.57;0.90;;;22.90;48.40;;;;;;5123239;27;20527;-48
2022/07/08 13:38:18;;;;;;;1.90;1.10;;;22.90;48.30;;;;;;5072217;27;20618;-46
2022/07/08 13:40:59;;;;;;;1.03;0.93;;;22.90;48.30;;;;;;5129614;27;20467;-47
2022/07/08 13:43:40;;;;;;;3.17;1.30;;;22.90;48.30;;;;;;5079264;27;20626;-48
2022/07/08 13:46:22;;;;;;;1.30;1.20;;;22.90;48.30;;;;;;5000851;28;20538;-46
2022/07/08 13:49:03;;;;;;;1.17;1.07;;;22.90;48.30;;;;;;5104565;27;20963;-47
2022/07/08 13:51:44;;;;;;;1.30;1.20;;;22.90;48.30;;;;;;5066560;28;21058;-47
2022/07/08 13:54:26;;;;;;;1.33;1.07;;;22.90;48.30;;;;;;5065999;27;21114;-47
2022/07/08 13:57:06;;;;;;;1.83;1.03;;;22.90;48.30;;;;;;5107190;27;20588;-47
2022/07/08 13:59:47;;;;;;;1.60;1.27;;;23.00;48.50;;;;;;5087952;28;20511;-46
2022/07/08 14:02:28;;;;;;;1.20;1.10;;;23.00;48.50;;;;;;5072277;27;20592;-47
2022/07/08 14:05:09;;;;;;;3.80;1.00;;;23.00;48.50;;;;;;5086492;27;20520;-48